Time;durP1;ratioP1;P1;durP2;ratioP2;P2;SDS_P1;SDS_P2;PMS_P1;PMS_P2;Temp;Humidity;BMP_temperature;BMP_pressure;BME280_temperature;BME280_humidity;BME280_pressure;Samples;Min_cycle;Max_cycle;Signal;HPM_P1;HPM_P2
2022/08/14 00:01:36;;;;;;;3.47;1.67;;;24.40;57.40;;;;;;5000331;28;20706;-59
2022/08/14 00:04:02;;;;;;;2.20;2.00;;;24.40;57.50;;;;;;4997484;28;20064;-59
2022/08/14 00:06:27;;;;;;;4.25;1.70;;;24.30;57.50;;;;;;4999325;28;20057;-60
2022/08/14 00:08:54;;;;;;;2.75;1.90;;;24.30;57.60;;;;;;4998959;28;20062;-59
2022/08/14 00:11:19;;;;;;;2.72;1.63;;;24.30;57.70;;;;;;4999905;28;20116;-60
2022/08/14 00:13:47;;;;;;;2.95;1.80;;;24.20;57.70;;;;;;5032348;28;20117;-60
2022/08/14 00:16:13;;;;;;;3.88;1.73;;;24.20;57.80;;;;;;4999552;28;20120;-61
2022/08/14 00:18:38;;;;;;;2.88;1.80;;;24.20;57.80;;;;;;4996492;28;20601;-60
2022/08/14 00:21:04;;;;;;;2.63;1.80;;;24.20;57.90;;;;;;5003088;28;20038;-59
2022/08/14 00:23:29;;;;;;;2.58;1.88;;;24.10;57.90;;;;;;4983400;28;20642;-59
2022/08/14 00:25:56;;;;;;;3.25;1.90;;;24.10;58.00;;;;;;5000277;28;20046;-59
2022/08/14 00:28:25;;;;;;;5.50;1.98;;;24.00;58.20;;;;;;5001001;28;20030;-59
2022/08/14 00:30:52;;;;;;;2.45;1.88;;;24.00;58.90;;;;;;5014236;28;20109;-59
2022/08/14 00:33:17;;;;;;;4.07;1.90;;;23.90;58.40;;;;;;4999961;28;20021;-60
2022/08/14 00:35:44;;;;;;;4.55;1.77;;;23.90;58.60;;;;;;5000306;28;20076;-59
2022/08/14 00:38:09;;;;;;;2.38;1.80;;;23.90;58.70;;;;;;4998397;28;20745;-59
2022/08/14 00:40:35;;;;;;;3.42;1.90;;;23.80;58.80;;;;;;4998339;28;20096;-59
2022/08/14 00:43:00;;;;;;;1.80;1.70;;;23.80;58.90;;;;;;5000202;28;20429;-59
2022/08/14 00:45:26;;;;;;;3.60;1.80;;;23.70;59.00;;;;;;4996920;28;20486;-60
2022/08/14 00:47:52;;;;;;;2.80;1.90;;;23.70;59.00;;;;;;4998344;28;20057;-59
2022/08/14 00:50:18;;;;;;;1.63;1.52;;;23.60;59.20;;;;;;4998970;28;20512;-59
2022/08/14 00:52:45;;;;;;;3.28;2.05;;;23.60;59.20;;;;;;4998665;28;20473;-59
2022/08/14 00:55:11;;;;;;;2.05;1.75;;;23.60;59.30;;;;;;4998894;28;20516;-60
2022/08/14 00:57:37;;;;;;;2.00;1.80;;;23.60;59.30;;;;;;4979054;28;20030;-59
2022/08/14 01:00:10;;;;;;;3.58;1.92;;;23.60;59.50;;;;;;5000528;28;20342;-59
2022/08/14 01:02:36;;;;;;;2.00;1.80;;;23.60;59.50;;;;;;5012495;28;20022;-59
2022/08/14 01:05:01;;;;;;;3.58;1.80;;;23.50;59.50;;;;;;4998880;28;20648;-59
2022/08/14 01:07:28;;;;;;;2.08;1.60;;;23.50;59.60;;;;;;4996782;28;20034;-60
2022/08/14 01:09:58;;;;;;;5.57;1.73;;;23.50;59.70;;;;;;4995533;28;20471;-59
2022/08/14 01:12:24;;;;;;;1.80;1.63;;;23.40;59.80;;;;;;4966460;28;20382;-59
2022/08/14 01:14:54;;;;;;;3.30;2.10;;;23.40;60.00;;;;;;4999568;28;20033;-59
2022/08/14 01:17:22;;;;;;;2.90;2.00;;;23.30;60.00;;;;;;4996722;28;20403;-59
2022/08/14 01:22:33;;;;;;;1.77;1.60;;;23.20;60.40;;;;;;4998147;28;20040;-59
2022/08/14 01:24:58;;;;;;;2.60;1.80;;;23.20;60.50;;;;;;5001783;28;20021;-59
2022/08/14 01:27:24;;;;;;;1.73;1.63;;;23.20;60.60;;;;;;4999333;28;20034;-59
2022/08/14 01:29:51;;;;;;;2.17;1.98;;;23.10;60.60;;;;;;5001490;28;21247;-59
2022/08/14 01:32:17;;;;;;;2.65;1.85;;;23.10;60.70;;;;;;4998807;28;20040;-59
2022/08/14 01:34:46;;;;;;;2.03;1.80;;;23.10;60.80;;;;;;4994854;28;20485;-59
2022/08/14 01:37:11;;;;;;;1.88;1.77;;;23.10;60.90;;;;;;5012122;28;20057;-60
2022/08/14 01:39:37;;;;;;;3.17;1.70;;;23.10;61.00;;;;;;4998992;28;20077;-59
2022/08/14 01:42:04;;;;;;;3.60;1.85;;;23.00;61.10;;;;;;4998564;28;20477;-59
2022/08/14 01:44:30;;;;;;;1.75;1.60;;;23.00;61.20;;;;;;4979933;28;20610;-59
2022/08/14 01:46:57;;;;;;;1.85;1.60;;;22.90;61.20;;;;;;4997397;28;20478;-59
2022/08/14 01:49:23;;;;;;;2.67;2.00;;;22.90;61.30;;;;;;4979980;28;20030;-59
2022/08/14 01:51:53;;;;;;;2.13;1.60;;;22.90;61.40;;;;;;4998232;28;20444;-59
2022/08/14 01:54:20;;;;;;;1.90;1.63;;;22.90;61.50;;;;;;4998750;28;20052;-59
2022/08/14 01:56:46;;;;;;;2.80;1.70;;;22.80;61.50;;;;;;5011983;28;20444;-59
2022/08/14 01:59:14;;;;;;;2.05;1.70;;;22.80;61.50;;;;;;4997460;28;20030;-60
2022/08/14 02:01:40;;;;;;;4.68;1.77;;;22.80;61.60;;;;;;4999247;28;20075;-59
2022/08/14 02:04:06;;;;;;;2.00;1.80;;;22.70;61.70;;;;;;4980569;28;20137;-61
2022/08/14 02:06:31;;;;;;;2.88;2.00;;;22.70;61.90;;;;;;5000023;28;20037;-59
2022/08/14 02:08:58;;;;;;;2.17;1.50;;;22.70;62.00;;;;;;5000754;28;20042;-59
2022/08/14 02:11:24;;;;;;;2.90;1.92;;;22.60;62.00;;;;;;4999614;28;20030;-59
2022/08/14 02:14:02;;;;;;;2.65;1.90;;;22.60;62.00;;;;;;4997577;28;20482;-59
2022/08/14 02:16:31;;;;;;;2.22;1.80;;;22.60;62.10;;;;;;4997057;28;20076;-59
2022/08/14 02:18:58;;;;;;;2.85;1.77;;;22.60;62.20;;;;;;4996534;28;20030;-59
2022/08/14 02:21:24;;;;;;;2.03;1.80;;;22.50;62.30;;;;;;4998957;28;20069;-59
2022/08/14 02:23:50;;;;;;;6.25;1.80;;;22.50;62.40;;;;;;4981691;28;20038;-59
2022/08/14 02:26:21;;;;;;;2.55;1.90;;;22.50;62.60;;;;;;4995792;28;20033;-60
2022/08/14 02:28:48;;;;;;;2.17;1.80;;;22.40;62.70;;;;;;4999078;28;20997;-59
2022/08/14 02:31:13;;;;;;;1.83;1.65;;;22.40;62.90;;;;;;4997849;28;20021;-59
2022/08/14 02:33:40;;;;;;;4.25;1.90;;;22.40;63.00;;;;;;4997723;28;20441;-59
2022/08/14 02:36:06;;;;;;;3.58;1.85;;;22.40;63.00;;;;;;4970346;28;20034;-60
2022/08/14 02:38:32;;;;;;;2.55;1.92;;;22.30;63.20;;;;;;5016826;28;20496;-59
2022/08/14 02:40:58;;;;;;;3.53;2.15;;;22.30;63.30;;;;;;5002627;28;20045;-59
2022/08/14 02:43:23;;;;;;;2.03;1.77;;;22.20;64.10;;;;;;4998888;28;20063;-60
2022/08/14 02:45:49;;;;;;;2.72;1.85;;;22.30;63.60;;;;;;5003757;28;20108;-59
2022/08/14 02:48:14;;;;;;;2.83;2.20;;;22.20;63.60;;;;;;5002636;28;20037;-59
2022/08/14 02:50:41;;;;;;;4.10;1.70;;;22.20;63.60;;;;;;5003063;28;20103;-60
2022/08/14 02:53:07;;;;;;;2.47;1.90;;;22.20;63.80;;;;;;4998973;28;20112;-60
2022/08/14 02:55:33;;;;;;;1.95;1.80;;;22.20;63.90;;;;;;5001772;28;20041;-59
2022/08/14 02:57:58;;;;;;;2.38;1.95;;;22.20;64.00;;;;;;4999207;28;20038;-59
2022/08/14 03:00:24;;;;;;;3.10;1.98;;;22.10;64.00;;;;;;4985713;28;20156;-59
2022/08/14 03:02:50;;;;;;;2.35;1.90;;;22.10;64.20;;;;;;5016192;28;20586;-59
2022/08/14 03:05:16;;;;;;;2.38;1.60;;;22.10;64.40;;;;;;5001444;28;20045;-59
2022/08/14 03:07:43;;;;;;;1.90;1.77;;;22.00;64.50;;;;;;5001445;28;20546;-59
2022/08/14 03:10:09;;;;;;;2.08;1.95;;;22.00;64.60;;;;;;4999466;28;20033;-59
2022/08/14 03:12:34;;;;;;;4.53;2.40;;;22.00;64.80;;;;;;5001447;28;20038;-59
2022/08/14 03:15:07;;;;;;;2.45;2.00;;;21.90;64.80;;;;;;5001420;28;20030;-59
2022/08/14 03:17:34;;;;;;;2.08;1.70;;;21.90;64.80;;;;;;4998297;28;20140;-59
2022/08/14 03:19:59;;;;;;;2.45;1.95;;;21.90;65.00;;;;;;5001216;28;20111;-59
2022/08/14 03:22:25;;;;;;;2.50;1.60;;;21.90;65.10;;;;;;4999533;28;20042;-59
2022/08/14 03:24:50;;;;;;;4.03;2.08;;;21.80;65.10;;;;;;5002513;28;20042;-59
2022/08/14 03:27:16;;;;;;;3.42;2.05;;;21.80;65.20;;;;;;5000860;28;20112;-59
2022/08/14 03:29:41;;;;;;;3.78;2.00;;;21.80;65.30;;;;;;5001041;28;20045;-59
2022/08/14 03:32:07;;;;;;;4.40;2.03;;;21.80;65.30;;;;;;5000462;28;20061;-59
2022/08/14 03:34:32;;;;;;;3.33;1.80;;;21.80;65.30;;;;;;5001075;28;20124;-59
2022/08/14 03:36:58;;;;;;;1.80;1.67;;;21.80;65.40;;;;;;4982961;28;20033;-59
2022/08/14 03:39:24;;;;;;;5.50;2.00;;;21.80;65.40;;;;;;5001317;28;20061;-59
2022/08/14 03:41:54;;;;;;;5.20;2.08;;;21.70;65.60;;;;;;5001335;28;20056;-59
2022/08/14 03:44:20;;;;;;;4.40;2.00;;;21.70;65.70;;;;;;4987048;28;20045;-60
2022/08/14 03:46:45;;;;;;;2.75;1.90;;;21.60;65.80;;;;;;4999254;28;20462;-59
2022/08/14 03:49:11;;;;;;;2.70;1.58;;;21.70;65.90;;;;;;5001360;28;20149;-59
2022/08/14 03:51:36;;;;;;;4.30;2.00;;;21.60;66.00;;;;;;5001526;28;20034;-59
2022/08/14 03:54:04;;;;;;;3.15;1.88;;;21.60;66.10;;;;;;5002381;28;20026;-59
2022/08/14 03:56:30;;;;;;;2.83;1.83;;;21.60;66.10;;;;;;5015396;28;20042;-59
2022/08/14 03:58:58;;;;;;;3.17;1.90;;;21.50;66.20;;;;;;4995632;28;20022;-58
2022/08/14 04:01:24;;;;;;;1.95;1.83;;;21.50;66.20;;;;;;5015246;28;20026;-59
2022/08/14 04:03:53;;;;;;;3.88;1.98;;;21.50;66.40;;;;;;5013037;28;20041;-59
2022/08/14 04:06:19;;;;;;;2.15;1.77;;;21.50;66.50;;;;;;4998212;28;20021;-59
2022/08/14 04:08:44;;;;;;;3.97;2.03;;;21.40;66.50;;;;;;4999908;28;20029;-59
2022/08/14 04:11:10;;;;;;;3.13;1.73;;;21.40;66.60;;;;;;4999346;28;20061;-59
2022/08/14 04:13:39;;;;;;;2.95;2.20;;;21.40;66.70;;;;;;5000329;28;20033;-58
2022/08/14 04:16:13;;;;;;;2.45;2.00;;;21.60;66.80;;;;;;4999864;28;20034;-59
2022/08/14 04:18:46;;;;;;;3.40;2.00;;;21.40;66.70;;;;;;4996754;28;20026;-59
2022/08/14 04:21:12;;;;;;;3.25;2.05;;;21.30;66.70;;;;;;4996407;28;20084;-59
2022/08/14 04:23:38;;;;;;;2.58;1.95;;;21.30;66.80;;;;;;4999495;28;20481;-59
2022/08/14 04:26:05;;;;;;;3.45;2.03;;;21.30;66.90;;;;;;4999361;28;20025;-59
2022/08/14 04:28:31;;;;;;;3.90;2.13;;;21.30;67.00;;;;;;4999519;28;20474;-59
2022/08/14 04:30:56;;;;;;;4.65;1.80;;;21.30;67.10;;;;;;4980802;28;20062;-59
2022/08/14 04:33:23;;;;;;;6.50;2.03;;;21.30;67.20;;;;;;4998792;28;20060;-59
2022/08/14 04:35:50;;;;;;;2.33;2.13;;;21.20;67.30;;;;;;4995947;28;20531;-59
2022/08/14 04:43:43;;;;;;;5.57;2.20;;;21.20;67.60;;;;;;4996756;28;20576;-59
2022/08/14 04:46:11;;;;;;;4.15;1.95;;;21.10;67.70;;;;;;4998307;28;20037;-59
2022/08/14 04:48:36;;;;;;;4.90;1.88;;;21.10;68.50;;;;;;4980125;28;20030;-59
2022/08/14 04:51:04;;;;;;;5.75;2.05;;;21.20;67.80;;;;;;4999280;28;20036;-64
2022/08/14 04:53:32;;;;;;;3.50;2.17;;;21.10;67.80;;;;;;4998213;28;20034;-63
2022/08/14 04:55:57;;;;;;;2.95;1.88;;;21.10;67.80;;;;;;4998335;28;20026;-61
2022/08/14 04:58:25;;;;;;;3.25;1.90;;;21.10;67.90;;;;;;4999905;28;20575;-62
2022/08/14 05:00:51;;;;;;;2.65;2.17;;;21.10;67.80;;;;;;4998783;28;20049;-60
2022/08/14 05:03:20;;;;;;;1.90;1.70;;;21.00;67.80;;;;;;4996391;28;20161;-59
2022/08/14 05:05:49;;;;;;;2.28;2.08;;;21.00;67.90;;;;;;4998098;28;20397;-63
2022/08/14 05:08:15;;;;;;;1.90;1.80;;;21.00;68.00;;;;;;4998364;28;20033;-59
2022/08/14 05:10:42;;;;;;;3.00;2.00;;;21.00;68.00;;;;;;4996357;28;20716;-59
2022/08/14 05:13:08;;;;;;;2.08;1.83;;;21.00;68.10;;;;;;4999434;28;20063;-60
2022/08/14 05:15:35;;;;;;;5.32;2.10;;;20.90;68.00;;;;;;5001049;28;20049;-59
2022/08/14 05:18:12;;;;;;;2.47;2.10;;;20.90;68.10;;;;;;4997950;28;20046;-60
2022/08/14 05:20:39;;;;;;;3.00;2.00;;;21.00;68.10;;;;;;4998733;28;20030;-61
2022/08/14 05:23:06;;;;;;;5.32;2.10;;;20.90;68.00;;;;;;4998939;28;20053;-59
2022/08/14 05:25:33;;;;;;;4.53;2.30;;;20.90;68.10;;;;;;5014761;28;20036;-59
2022/08/14 05:28:11;;;;;;;2.33;1.80;;;20.90;68.10;;;;;;4999016;28;20041;-59
2022/08/14 05:30:37;;;;;;;2.72;2.10;;;20.90;68.10;;;;;;4996709;28;20682;-59
2022/08/14 05:33:06;;;;;;;2.15;1.92;;;20.90;68.10;;;;;;4998430;28;20036;-59
2022/08/14 05:35:32;;;;;;;2.38;2.03;;;20.90;68.30;;;;;;4999979;28;20061;-59
2022/08/14 05:37:59;;;;;;;2.50;2.30;;;20.90;68.40;;;;;;4997744;28;20033;-59
2022/08/14 05:40:24;;;;;;;2.90;1.80;;;20.90;68.50;;;;;;5000425;28;20038;-59
2022/08/14 05:42:50;;;;;;;5.15;2.35;;;20.90;68.70;;;;;;4996293;28;20093;-59
2022/08/14 05:45:16;;;;;;;6.50;2.08;;;20.90;68.60;;;;;;5000659;28;20621;-59
2022/08/14 05:47:41;;;;;;;3.47;2.28;;;20.80;68.60;;;;;;5000341;28;20737;-59
2022/08/14 05:50:11;;;;;;;3.47;2.10;;;20.80;68.60;;;;;;5000036;28;20092;-59
2022/08/14 05:52:37;;;;;;;2.72;2.25;;;20.80;68.70;;;;;;4998758;28;20021;-59
2022/08/14 05:55:04;;;;;;;2.55;2.17;;;20.80;68.80;;;;;;4996382;28;20052;-59
2022/08/14 05:57:29;;;;;;;5.22;2.28;;;20.80;68.80;;;;;;5012811;28;20136;-59
2022/08/14 05:59:55;;;;;;;3.28;2.15;;;20.80;68.80;;;;;;5032028;28;20165;-59
2022/08/14 06:02:20;;;;;;;3.30;2.03;;;20.80;68.80;;;;;;4999622;28;20416;-59
2022/08/14 06:04:47;;;;;;;3.95;2.10;;;20.80;68.80;;;;;;4999625;28;20196;-59
2022/08/14 06:07:13;;;;;;;3.80;2.00;;;20.80;68.80;;;;;;4997240;28;20049;-59
2022/08/14 06:09:39;;;;;;;2.75;2.20;;;20.80;68.90;;;;;;4998348;28;20112;-59
2022/08/14 06:12:05;;;;;;;2.88;1.80;;;20.80;69.00;;;;;;4984892;28;20042;-59
2022/08/14 06:14:30;;;;;;;3.55;1.98;;;20.80;69.10;;;;;;5003042;28;20046;-59
2022/08/14 06:16:56;;;;;;;2.30;2.10;;;20.80;69.10;;;;;;5002784;28;20118;-59
2022/08/14 06:19:21;;;;;;;2.63;2.10;;;20.80;69.20;;;;;;4999213;28;20026;-59
2022/08/14 06:21:47;;;;;;;3.42;2.40;;;20.80;69.40;;;;;;5001140;28;21204;-59
2022/08/14 06:24:12;;;;;;;4.18;2.40;;;20.80;69.50;;;;;;5003168;28;20076;-59
2022/08/14 06:26:38;;;;;;;2.33;2.13;;;20.70;69.50;;;;;;5003816;28;20327;-59
2022/08/14 06:29:03;;;;;;;2.40;2.20;;;20.70;69.70;;;;;;5000228;28;20030;-59
2022/08/14 06:31:29;;;;;;;2.50;2.30;;;20.70;69.80;;;;;;4998117;28;20382;-59
2022/08/14 06:33:55;;;;;;;3.55;2.30;;;20.80;69.90;;;;;;4997825;28;20386;-59
2022/08/14 06:36:20;;;;;;;4.88;2.25;;;20.70;69.90;;;;;;4998662;28;20022;-59
2022/08/14 06:38:46;;;;;;;3.88;1.92;;;20.70;70.00;;;;;;4999372;28;20444;-59
2022/08/14 06:41:11;;;;;;;2.42;2.22;;;20.70;70.00;;;;;;5001149;28;20054;-59
2022/08/14 06:43:37;;;;;;;4.40;2.13;;;20.70;70.10;;;;;;4985746;28;20805;-59
2022/08/14 06:46:02;;;;;;;3.45;2.15;;;20.70;70.00;;;;;;5000430;28;20040;-60
2022/08/14 06:48:28;;;;;;;2.28;2.08;;;20.70;70.00;;;;;;4999130;28;20076;-59
2022/08/14 06:50:54;;;;;;;2.92;1.95;;;20.70;70.00;;;;;;5001671;28;20045;-59
2022/08/14 06:53:20;;;;;;;2.53;2.20;;;20.70;69.90;;;;;;5002160;28;20495;-59
2022/08/14 06:55:46;;;;;;;4.30;2.10;;;20.70;69.90;;;;;;5001311;28;20370;-59
2022/08/14 06:58:12;;;;;;;2.50;2.05;;;20.70;70.00;;;;;;4999728;28;20052;-59
2022/08/14 07:00:38;;;;;;;3.30;1.90;;;20.80;70.20;;;;;;5001450;28;20398;-59
2022/08/14 07:05:48;;;;;;;3.20;2.35;;;20.80;70.20;;;;;;4999602;28;20049;-59
2022/08/14 07:08:21;;;;;;;2.60;2.35;;;20.80;70.10;;;;;;5014367;28;20474;-59
2022/08/14 07:10:52;;;;;;;2.05;1.83;;;20.70;70.00;;;;;;4999896;28;20021;-59
2022/08/14 07:13:17;;;;;;;3.10;2.20;;;20.80;70.00;;;;;;4999871;28;20036;-59
2022/08/14 07:15:49;;;;;;;2.53;2.15;;;20.80;70.00;;;;;;4999631;28;20393;-59
2022/08/14 07:18:15;;;;;;;4.05;2.05;;;20.80;70.00;;;;;;4995378;28;20030;-59
2022/08/14 07:20:40;;;;;;;4.10;2.35;;;20.80;70.00;;;;;;4983402;28;20030;-59
2022/08/14 07:23:08;;;;;;;4.30;2.03;;;20.80;70.00;;;;;;4984201;28;20030;-60
2022/08/14 07:25:38;;;;;;;2.22;2.03;;;20.90;70.00;;;;;;4969980;28;20030;-59
2022/08/14 07:28:13;;;;;;;2.58;2.00;;;20.80;69.90;;;;;;5014280;28;20034;-59
2022/08/14 07:30:39;;;;;;;3.58;2.00;;;20.80;70.00;;;;;;5000558;28;20053;-59
2022/08/14 07:33:05;;;;;;;2.38;2.05;;;20.90;70.00;;;;;;4999455;28;20026;-59
2022/08/14 07:35:31;;;;;;;2.35;2.13;;;20.90;70.10;;;;;;5000436;28;20033;-60
2022/08/14 07:37:57;;;;;;;2.90;2.10;;;20.90;70.00;;;;;;4995638;28;20152;-59
2022/08/14 07:40:23;;;;;;;4.55;2.28;;;20.90;69.90;;;;;;4976283;28;20103;-59
2022/08/14 07:42:48;;;;;;;2.35;2.13;;;20.90;70.00;;;;;;4991579;28;20069;-59
2022/08/14 07:45:14;;;;;;;4.00;2.00;;;20.90;69.90;;;;;;5000729;28;20040;-59
2022/08/14 07:47:42;;;;;;;4.18;1.88;;;20.90;70.00;;;;;;5003697;28;20037;-59
2022/08/14 07:50:13;;;;;;;2.67;2.10;;;20.90;69.90;;;;;;5002521;28;20049;-59
2022/08/14 07:52:39;;;;;;;2.50;2.28;;;20.90;69.90;;;;;;5004411;28;20101;-59
2022/08/14 07:55:05;;;;;;;2.60;2.00;;;21.00;70.00;;;;;;4988198;28;20129;-59
2022/08/14 07:57:30;;;;;;;2.20;2.00;;;21.00;70.00;;;;;;5002118;28;20494;-59
2022/08/14 07:59:56;;;;;;;6.25;2.38;;;21.00;70.00;;;;;;5003107;28;20117;-59
2022/08/14 08:02:21;;;;;;;5.32;2.20;;;21.00;70.00;;;;;;5004373;28;20029;-59
2022/08/14 08:04:49;;;;;;;1.92;1.73;;;21.00;70.00;;;;;;5002728;28;20478;-61
2022/08/14 08:07:15;;;;;;;2.45;2.25;;;21.10;70.00;;;;;;5003462;28;20485;-59
2022/08/14 08:09:44;;;;;;;5.45;2.08;;;21.10;70.00;;;;;;5002685;28;20050;-59
2022/08/14 08:12:10;;;;;;;3.90;2.30;;;21.10;70.50;;;;;;5001773;28;20048;-59
2022/08/14 08:14:36;;;;;;;4.40;2.15;;;21.10;70.40;;;;;;5003474;28;20033;-59
2022/08/14 08:17:01;;;;;;;11.93;2.22;;;21.10;70.30;;;;;;4985972;28;20472;-60
2022/08/14 08:19:27;;;;;;;10.23;2.60;;;21.10;70.40;;;;;;5001170;28;20105;-59
2022/08/14 08:21:53;;;;;;;5.13;2.55;;;21.20;71.40;;;;;;4999337;28;20623;-59
2022/08/14 08:24:19;;;;;;;5.95;2.60;;;21.20;71.40;;;;;;4994081;28;20049;-60
2022/08/14 08:26:44;;;;;;;7.25;2.50;;;21.20;71.30;;;;;;4998838;28;20391;-60
2022/08/14 08:29:16;;;;;;;4.40;2.53;;;21.20;72.20;;;;;;4996896;28;20100;-60
2022/08/14 08:31:51;;;;;;;3.58;2.47;;;21.20;71.20;;;;;;4999369;28;20026;-59
2022/08/14 08:34:18;;;;;;;6.97;2.30;;;21.30;71.20;;;;;;5000752;28;20052;-60
2022/08/14 08:36:43;;;;;;;8.82;2.55;;;21.30;71.30;;;;;;5014552;28;20484;-59
2022/08/14 08:39:09;;;;;;;21.30;3.80;;;21.30;72.00;;;;;;4997357;28;20101;-60
2022/08/14 08:41:53;;;;;;;21.75;4.50;;;21.30;71.10;;;;;;5011974;28;20041;-59
2022/08/14 08:44:18;;;;;;;4.78;2.60;;;21.30;72.00;;;;;;4997366;28;20315;-60
2022/08/14 08:46:44;;;;;;;11.82;3.38;;;21.30;71.00;;;;;;4996620;28;20191;-60
2022/08/14 08:49:09;;;;;;;16.73;3.88;;;21.40;71.20;;;;;;4994941;28;20034;-59
2022/08/14 08:51:39;;;;;;;15.68;3.38;;;21.40;72.20;;;;;;4999002;28;20042;-59
2022/08/14 08:54:09;;;;;;;13.75;2.97;;;21.40;71.30;;;;;;4998213;28;20038;-59
2022/08/14 08:56:53;;;;;;;14.65;3.45;;;21.40;71.90;;;;;;4997201;28;20021;-59
2022/08/14 08:59:29;;;;;;;16.20;3.40;;;21.50;72.10;;;;;;5014327;28;20112;-59
2022/08/14 09:01:59;;;;;;;9.88;3.13;;;21.50;72.20;;;;;;4979257;28;20755;-60
2022/08/14 09:04:26;;;;;;;13.13;3.20;;;21.50;71.80;;;;;;4995958;28;20389;-59
2022/08/14 09:06:52;;;;;;;15.63;3.58;;;21.50;71.50;;;;;;4992725;28;20045;-59
2022/08/14 09:09:28;;;;;;;9.68;3.35;;;21.60;72.00;;;;;;4997549;28;20042;-60
2022/08/14 09:11:54;;;;;;;13.77;3.72;;;21.60;72.70;;;;;;5000220;28;20042;-59
2022/08/14 09:14:21;;;;;;;28.65;4.90;;;21.60;72.60;;;;;;4997519;28;20502;-59
2022/08/14 09:16:47;;;;;;;16.70;3.83;;;21.70;72.80;;;;;;5032065;28;20611;-60
2022/08/14 09:19:13;;;;;;;9.15;3.35;;;21.70;72.70;;;;;;4998386;28;20046;-60
2022/08/14 09:21:39;;;;;;;22.80;3.90;;;21.70;72.70;;;;;;4981512;28;20025;-60
2022/08/14 09:24:07;;;;;;;15.27;3.88;;;21.80;72.70;;;;;;4994550;28;20339;-60
2022/08/14 09:26:33;;;;;;;20.55;4.07;;;21.90;72.50;;;;;;4977268;28;20790;-60
2022/08/14 09:28:59;;;;;;;14.23;3.40;;;21.90;72.20;;;;;;4976089;28;20074;-60
2022/08/14 09:31:24;;;;;;;10.27;3.30;;;21.90;72.00;;;;;;4976705;28;20042;-60
2022/08/14 09:33:57;;;;;;;10.30;3.00;;;21.90;72.00;;;;;;4980116;28;20062;-60
2022/08/14 09:36:50;;;;;;;14.88;3.47;;;22.00;71.30;;;;;;4973378;28;20335;-60
2022/08/14 09:39:49;;;;;;;19.80;3.80;;;22.10;71.80;;;;;;4999353;28;20037;-60
2022/08/14 09:42:34;;;;;;;25.90;4.18;;;22.10;71.10;;;;;;4999654;28;20030;-61
2022/08/14 09:45:16;;;;;;;33.95;4.43;;;22.10;71.30;;;;;;5000679;28;20044;-61
2022/08/14 09:47:49;;;;;;;20.55;4.60;;;22.20;71.40;;;;;;4992478;28;20426;-60
2022/08/14 09:50:21;;;;;;;40.88;5.32;;;22.30;71.10;;;;;;4983099;28;21357;-60
2022/08/14 09:52:58;;;;;;;22.73;4.70;;;22.30;71.00;;;;;;4980920;28;20091;-60
2022/08/14 09:55:24;;;;;;;26.65;4.18;;;22.30;70.80;;;;;;4992831;28;20045;-60
2022/08/14 09:57:50;;;;;;;27.05;4.88;;;22.30;71.10;;;;;;5012098;28;20506;-60
2022/08/14 10:00:17;;;;;;;22.38;5.25;;;22.40;71.10;;;;;;5018075;28;20022;-60
2022/08/14 10:03:01;;;;;;;52.78;7.55;;;22.50;70.90;;;;;;5000846;28;20057;-60
2022/08/14 10:05:32;;;;;;;40.67;6.95;;;22.60;71.00;;;;;;4996434;28;20099;-63
2022/08/14 10:07:58;;;;;;;68.97;9.02;;;22.60;70.70;;;;;;5014142;28;20099;-60
2022/08/14 10:10:39;;;;;;;42.80;5.68;;;22.70;70.60;;;;;;4999363;28;20033;-60
2022/08/14 10:13:06;;;;;;;52.42;7.10;;;22.70;70.20;;;;;;4993522;28;20026;-61
2022/08/14 10:15:32;;;;;;;57.75;7.25;;;22.80;70.00;;;;;;4979810;28;20145;-61
2022/08/14 10:18:12;;;;;;;59.38;8.35;;;22.80;70.10;;;;;;4973919;28;20116;-60
2022/08/14 10:20:43;;;;;;;49.30;8.40;;;22.90;70.10;;;;;;4979581;28;20121;-60
2022/08/14 10:23:21;;;;;;;46.65;8.43;;;23.00;70.20;;;;;;4998070;28;20076;-60
2022/08/14 10:25:51;;;;;;;89.35;11.60;;;23.00;70.00;;;;;;4996751;28;20127;-60
2022/08/14 10:28:18;;;;;;;64.97;9.43;;;23.00;69.80;;;;;;4997461;28;20154;-60
2022/08/14 10:30:47;;;;;;;78.35;10.45;;;23.10;69.50;;;;;;4998156;28;20133;-60
2022/08/14 10:33:23;;;;;;;92.80;10.63;;;23.20;69.50;;;;;;5000940;28;20426;-60
2022/08/14 10:35:49;;;;;;;76.93;9.63;;;23.30;69.10;;;;;;4994961;28;20116;-60
2022/08/14 10:38:31;;;;;;;72.35;10.57;;;23.40;69.00;;;;;;4993337;28;20039;-60
2022/08/14 10:41:12;;;;;;;62.83;9.43;;;23.50;69.10;;;;;;4993910;28;20041;-60
2022/08/14 10:43:39;;;;;;;91.35;11.02;;;23.60;69.10;;;;;;5001041;28;20049;-60
2022/08/14 10:46:14;;;;;;;48.55;8.25;;;23.60;68.60;;;;;;4991905;28;20041;-60
2022/08/14 10:48:40;;;;;;;71.88;10.23;;;23.70;68.20;;;;;;4997922;28;20057;-60
2022/08/14 10:51:05;;;;;;;102.22;12.68;;;23.80;68.40;;;;;;4999436;28;20026;-60
2022/08/14 10:53:33;;;;;;;88.10;10.82;;;23.80;68.00;;;;;;5000794;28;20080;-60
2022/08/14 10:56:00;;;;;;;100.35;12.43;;;23.90;67.90;;;;;;4982720;28;20034;-60
2022/08/14 10:58:30;;;;;;;82.22;11.68;;;24.00;67.90;;;;;;4999795;28;20053;-61
2022/08/14 11:00:57;;;;;;;175.13;17.92;;;24.10;67.70;;;;;;4988962;28;20107;-61
2022/08/14 11:03:24;;;;;;;58.70;9.95;;;24.20;67.50;;;;;;4995022;28;21425;-61
2022/08/14 11:05:52;;;;;;;74.70;11.63;;;24.20;67.10;;;;;;4994671;28;20558;-59
2022/08/14 11:08:28;;;;;;;71.80;10.02;;;24.30;66.90;;;;;;4994496;28;20758;-60
2022/08/14 11:10:56;;;;;;;65.78;9.23;;;24.40;66.50;;;;;;4991886;28;20049;-61
2022/08/14 11:13:23;;;;;;;71.13;8.90;;;24.50;66.00;;;;;;4994091;28;20049;-60
2022/08/14 11:15:48;;;;;;;66.93;9.70;;;24.60;65.70;;;;;;4991980;28;20032;-61
2022/08/14 11:18:15;;;;;;;55.92;8.85;;;24.70;65.30;;;;;;4990720;28;20029;-60
2022/08/14 11:20:50;;;;;;;78.05;10.50;;;24.90;64.90;;;;;;4996170;28;20024;-60
2022/08/14 11:23:17;;;;;;;31.80;5.13;;;25.00;64.40;;;;;;4996507;28;20120;-60
2022/08/14 11:25:44;;;;;;;57.58;8.02;;;25.10;63.00;;;;;;5003469;28;20049;-61
2022/08/14 11:28:13;;;;;;;31.70;5.22;;;25.20;63.50;;;;;;4994923;28;20038;-60
2022/08/14 11:30:39;;;;;;;29.80;4.85;;;25.30;62.50;;;;;;4990032;28;20022;-61
2022/08/14 11:33:06;;;;;;;44.72;6.80;;;25.50;62.20;;;;;;4974454;28;20061;-61
2022/08/14 11:35:31;;;;;;;27.73;5.10;;;25.60;62.50;;;;;;4993925;28;20192;-60
2022/08/14 11:37:58;;;;;;;30.10;4.85;;;25.60;62.40;;;;;;4991504;28;20026;-60
2022/08/14 11:40:29;;;;;;;43.10;6.25;;;25.70;62.50;;;;;;4994688;28;20027;-60
2022/08/14 11:42:55;;;;;;;43.72;6.60;;;25.80;62.30;;;;;;4994914;28;20038;-60
2022/08/14 11:45:25;;;;;;;18.63;4.65;;;25.90;62.30;;;;;;4994630;28;20676;-60
2022/08/14 11:47:51;;;;;;;39.60;6.28;;;25.90;61.90;;;;;;5007623;28;20524;-60
2022/08/14 11:50:19;;;;;;;39.90;7.20;;;26.00;61.50;;;;;;4992568;28;20085;-62
2022/08/14 11:52:45;;;;;;;50.55;6.47;;;26.00;61.80;;;;;;4972760;28;20132;-61
2022/08/14 11:55:12;;;;;;;27.40;4.65;;;26.00;62.10;;;;;;4994186;28;20044;-61
2022/08/14 11:57:39;;;;;;;23.02;5.00;;;26.10;62.00;;;;;;4994460;28;20030;-61
2022/08/14 12:00:08;;;;;;;37.33;5.65;;;26.20;61.90;;;;;;4977481;28;20034;-61
2022/08/14 12:02:33;;;;;;;41.40;4.93;;;26.20;61.90;;;;;;4995743;28;20084;-61
2022/08/14 12:04:59;;;;;;;35.30;6.78;;;26.30;61.80;;;;;;4996646;28;20026;-61
2022/08/14 12:07:24;;;;;;;55.00;6.65;;;26.30;61.90;;;;;;4995876;28;20037;-61
2022/08/14 12:09:54;;;;;;;42.88;7.13;;;26.30;62.00;;;;;;4993083;28;20932;-61
2022/08/14 12:12:24;;;;;;;48.75;7.53;;;26.40;62.20;;;;;;4995465;28;20038;-61
2022/08/14 12:14:55;;;;;;;38.90;6.38;;;26.40;61.80;;;;;;4993861;28;20068;-61
2022/08/14 12:17:25;;;;;;;57.33;7.18;;;26.40;61.60;;;;;;4996126;28;20034;-60
2022/08/14 12:19:59;;;;;;;29.70;5.47;;;26.50;61.50;;;;;;4976862;28;20124;-61
2022/08/14 12:22:42;;;;;;;30.70;4.25;;;26.50;60.80;;;;;;4993635;28;20125;-60
2022/08/14 12:25:12;;;;;;;42.75;7.25;;;26.60;59.90;;;;;;4978304;28;20030;-60
2022/08/14 12:27:39;;;;;;;25.17;4.38;;;26.70;59.40;;;;;;4993334;28;20030;-60
2022/08/14 12:30:05;;;;;;;168.73;18.95;;;26.70;58.50;;;;;;4996748;28;20309;-60
2022/08/14 12:32:40;;;;;;;23.10;3.45;;;26.80;58.10;;;;;;4999163;28;20112;-61
2022/08/14 12:35:07;;;;;;;16.83;3.55;;;26.90;57.10;;;;;;4996858;28;20021;-61
2022/08/14 12:37:35;;;;;;;19.55;4.18;;;27.00;56.70;;;;;;4994147;28;20061;-61
2022/08/14 12:40:14;;;;;;;26.95;4.72;;;27.00;56.30;;;;;;4997713;28;20382;-60
2022/08/14 12:42:39;;;;;;;34.88;4.68;;;27.10;56.60;;;;;;4976784;28;20042;-61
2022/08/14 12:45:05;;;;;;;17.52;3.78;;;27.20;56.40;;;;;;4997628;28;20021;-60
2022/08/14 12:47:31;;;;;;;31.67;4.15;;;27.20;56.20;;;;;;4993235;28;20149;-61
2022/08/14 12:49:57;;;;;;;10.23;3.47;;;27.20;55.90;;;;;;4995261;28;20036;-60
2022/08/14 12:52:28;;;;;;;26.27;4.38;;;27.30;56.50;;;;;;4996248;28;22118;-61
2022/08/14 12:55:04;;;;;;;13.85;2.90;;;27.30;56.40;;;;;;4993554;28;20679;-60
2022/08/14 12:57:43;;;;;;;21.60;4.63;;;27.30;56.20;;;;;;4996367;28;20034;-64